Time;durP1;ratioP1;P1;durP2;ratioP2;P2;SDS_P1;SDS_P2;PMS_P1;PMS_P2;Temp;Humidity;BMP_temperature;BMP_pressure;BME280_temperature;BME280_humidity;BME280_pressure;Samples;Min_cycle;Max_cycle;Signal;HPM_P1;HPM_P2
2023/05/09 00:00:45;;;;;;;45.75;32.03;;;16.70;99.90;;;;;;5171677;27;20469;-61
2023/05/09 00:03:11;;;;;;;47.78;32.72;;;16.70;99.90;;;;;;5120712;27;20095;-58
2023/05/09 00:05:37;;;;;;;50.83;33.33;;;16.70;99.90;;;;;;5171036;27;20099;-59
2023/05/09 00:08:03;;;;;;;48.28;32.25;;;16.70;99.90;;;;;;5171581;27;20046;-59
2023/05/09 00:10:29;;;;;;;49.58;33.72;;;16.60;99.90;;;;;;5171036;27;20503;-59
2023/05/09 00:12:55;;;;;;;49.53;33.00;;;16.60;99.90;;;;;;5170907;27;20049;-58
2023/05/09 00:15:22;;;;;;;50.88;34.15;;;16.60;99.90;;;;;;5130356;27;20047;-60
2023/05/09 00:17:49;;;;;;;54.03;34.97;;;16.60;99.90;;;;;;5133955;27;20039;-59
2023/05/09 00:20:15;;;;;;;49.92;34.72;;;16.50;99.90;;;;;;5136120;27;20039;-60
2023/05/09 00:22:40;;;;;;;53.13;34.50;;;16.60;99.90;;;;;;5135708;27;20127;-61
2023/05/09 00:25:08;;;;;;;51.80;34.67;;;16.60;99.90;;;;;;5133084;27;20043;-60
2023/05/09 00:27:34;;;;;;;53.97;34.53;;;16.50;99.90;;;;;;5133616;27;20079;-58
2023/05/09 00:29:59;;;;;;;54.38;35.15;;;16.40;99.90;;;;;;5133249;27;20051;-60
2023/05/09 00:32:26;;;;;;;59.55;37.55;;;16.40;99.90;;;;;;5134082;27;20043;-57
2023/05/09 00:34:52;;;;;;;55.50;37.08;;;16.30;99.90;;;;;;5133453;27;20478;-59
2023/05/09 00:37:18;;;;;;;56.47;36.78;;;16.30;99.90;;;;;;5133682;27;20064;-58
2023/05/09 00:39:44;;;;;;;57.90;38.35;;;16.20;99.90;;;;;;5131922;27;20098;-59
2023/05/09 00:42:10;;;;;;;61.08;38.25;;;16.20;99.90;;;;;;5134280;27;20027;-59
2023/05/09 00:44:36;;;;;;;59.08;37.80;;;16.10;99.90;;;;;;5132808;27;20046;-59
2023/05/09 00:47:02;;;;;;;59.45;37.40;;;16.10;99.90;;;;;;5133512;27;20035;-57
2023/05/09 00:49:28;;;;;;;55.00;36.90;;;16.10;99.90;;;;;;5133389;27;20501;-58
2023/05/09 00:51:55;;;;;;;57.03;37.40;;;16.10;99.90;;;;;;5133049;27;20069;-59
2023/05/09 00:54:21;;;;;;;63.17;39.08;;;16.10;99.90;;;;;;5131024;27;20679;-58
2023/05/09 00:56:47;;;;;;;60.92;38.45;;;16.10;99.90;;;;;;5133538;27;20039;-59
2023/05/09 00:59:12;;;;;;;60.42;38.72;;;16.10;99.90;;;;;;5131943;27;20023;-62
2023/05/09 01:01:38;;;;;;;58.70;38.15;;;16.00;99.90;;;;;;5133870;27;20042;-59
2023/05/09 01:04:04;;;;;;;64.43;39.95;;;16.10;99.90;;;;;;5131160;27;20070;-58
2023/05/09 01:06:53;;;;;;;60.45;38.20;;;16.10;99.90;;;;;;5133350;27;20039;-59
2023/05/09 01:09:41;;;;;;;57.00;37.35;;;16.10;99.90;;;;;;5132420;27;20144;-59
2023/05/09 01:12:06;;;;;;;57.90;38.45;;;16.00;99.90;;;;;;5133043;27;20074;-58
2023/05/09 01:14:54;;;;;;;62.63;39.85;;;16.00;99.90;;;;;;5134899;27;20090;-59
2023/05/09 01:17:50;;;;;;;60.00;39.40;;;16.00;99.90;;;;;;5149988;27;20354;-60
2023/05/09 01:20:32;;;;;;;61.33;39.10;;;15.90;99.90;;;;;;5173727;27;20094;-57
2023/05/09 01:23:20;;;;;;;68.80;41.75;;;15.90;99.90;;;;;;5173820;27;20037;-58
2023/05/09 01:26:13;;;;;;;58.55;38.30;;;15.90;99.90;;;;;;5175841;27;20046;-59
2023/05/09 01:29:16;;;;;;;62.42;40.70;;;15.90;99.90;;;;;;5174344;27;20114;-58
2023/05/09 01:31:44;;;;;;;61.40;39.30;;;15.90;99.90;;;;;;5135817;27;20042;-56
2023/05/09 01:34:13;;;;;;;66.80;40.95;;;15.90;99.90;;;;;;5157395;27;20050;-60
2023/05/09 01:36:41;;;;;;;67.30;41.75;;;15.90;99.90;;;;;;5172889;27;20030;-60
2023/05/09 01:39:12;;;;;;;70.50;41.05;;;15.90;99.90;;;;;;5140373;27;20031;-60
2023/05/09 01:41:38;;;;;;;63.40;39.72;;;15.90;99.90;;;;;;5171935;27;20034;-59
2023/05/09 01:44:08;;;;;;;69.05;42.40;;;15.90;99.90;;;;;;5141127;27;20490;-59
2023/05/09 01:46:35;;;;;;;68.38;40.60;;;15.90;99.90;;;;;;5174140;27;20077;-60
2023/05/09 01:49:02;;;;;;;67.43;42.08;;;15.90;99.90;;;;;;5175345;27;20030;-58
2023/05/09 01:51:30;;;;;;;69.57;41.00;;;15.90;99.90;;;;;;5172800;27;20066;-57
2023/05/09 01:53:57;;;;;;;64.38;40.65;;;15.90;99.90;;;;;;5173022;27;20084;-56
2023/05/09 01:56:24;;;;;;;71.07;42.40;;;15.90;99.90;;;;;;5132100;27;20035;-57
2023/05/09 01:58:52;;;;;;;65.40;40.80;;;15.80;99.90;;;;;;5161258;27;20035;-58
2023/05/09 02:01:18;;;;;;;66.22;41.22;;;15.90;99.90;;;;;;5173668;27;20070;-59
2023/05/09 02:03:47;;;;;;;71.25;42.65;;;15.90;99.90;;;;;;5172355;27;20046;-59
2023/05/09 02:06:16;;;;;;;72.05;43.72;;;15.80;99.90;;;;;;5173584;27;20493;-60
2023/05/09 02:08:42;;;;;;;77.88;44.83;;;15.80;99.90;;;;;;5173928;27;20063;-60
2023/05/09 02:11:08;;;;;;;73.70;42.42;;;15.90;99.90;;;;;;5175312;27;20045;-59
2023/05/09 02:13:34;;;;;;;74.15;44.53;;;15.80;99.90;;;;;;5174677;27;20397;-60
2023/05/09 02:16:00;;;;;;;74.85;43.50;;;15.90;99.90;;;;;;5173278;27;20068;-57
2023/05/09 02:18:26;;;;;;;77.88;45.50;;;15.80;99.90;;;;;;5173739;27;20066;-61
2023/05/09 02:20:52;;;;;;;74.80;43.85;;;15.90;99.90;;;;;;5171907;27;20385;-58
2023/05/09 02:23:18;;;;;;;72.88;45.03;;;15.80;99.90;;;;;;5173599;27;20034;-61
2023/05/09 02:25:45;;;;;;;70.95;43.33;;;15.90;99.90;;;;;;5171074;27;20035;-57
2023/05/09 02:28:11;;;;;;;72.32;43.53;;;15.90;99.90;;;;;;5173414;27;20155;-61
2023/05/09 02:30:42;;;;;;;74.90;44.25;;;15.80;99.90;;;;;;5171768;27;20034;-57
2023/05/09 02:33:10;;;;;;;70.88;43.58;;;15.90;99.90;;;;;;5172413;27;20042;-58
2023/05/09 02:35:36;;;;;;;75.13;44.25;;;15.90;99.90;;;;;;5173348;27;20090;-60
2023/05/09 02:38:02;;;;;;;71.60;43.92;;;15.80;99.90;;;;;;5172867;27;20166;-62
2023/05/09 02:40:29;;;;;;;73.43;43.58;;;15.90;99.90;;;;;;5126399;27;20114;-61
2023/05/09 02:42:56;;;;;;;76.97;44.47;;;15.90;99.90;;;;;;5160531;27;20040;-59
2023/05/09 02:45:21;;;;;;;71.53;45.10;;;15.80;99.90;;;;;;5173203;27;20031;-60
2023/05/09 02:47:47;;;;;;;72.50;43.95;;;15.80;99.90;;;;;;5172510;27;20046;-58
2023/05/09 02:50:13;;;;;;;74.97;45.33;;;15.70;99.90;;;;;;5173078;27;20042;-57
2023/05/09 02:52:39;;;;;;;71.25;43.58;;;15.80;99.90;;;;;;5168767;27;20362;-59
2023/05/09 02:55:06;;;;;;;82.25;46.95;;;15.70;99.90;;;;;;5144545;27;20042;-58
2023/05/09 02:57:32;;;;;;;77.28;45.42;;;15.70;99.90;;;;;;5137474;27;20126;-57
2023/05/09 02:59:59;;;;;;;77.35;46.42;;;15.80;99.90;;;;;;5172042;27;20038;-59
2023/05/09 03:02:24;;;;;;;74.95;44.97;;;15.70;99.90;;;;;;5171777;27;20041;-60
2023/05/09 03:04:50;;;;;;;78.07;46.17;;;15.70;99.90;;;;;;5174332;27;20113;-59
2023/05/09 03:07:16;;;;;;;78.55;46.45;;;15.70;99.90;;;;;;5174280;27;20030;-60
2023/05/09 03:09:42;;;;;;;76.60;45.75;;;15.70;99.90;;;;;;5172201;27;20026;-60
2023/05/09 03:12:07;;;;;;;85.07;48.53;;;15.70;99.90;;;;;;5172716;27;20042;-58
2023/05/09 03:14:33;;;;;;;85.32;48.72;;;15.70;99.90;;;;;;5171841;27;20072;-59
2023/05/09 03:16:59;;;;;;;77.60;46.53;;;15.70;99.90;;;;;;5172467;27;20060;-60
2023/05/09 03:19:25;;;;;;;75.65;45.75;;;15.70;99.90;;;;;;5171947;27;20042;-59
2023/05/09 03:21:50;;;;;;;80.93;48.05;;;15.70;99.90;;;;;;5172158;27;20033;-59
2023/05/09 03:24:16;;;;;;;82.80;48.88;;;15.70;99.90;;;;;;5137218;27;20134;-60
2023/05/09 03:26:42;;;;;;;85.60;49.60;;;15.70;99.90;;;;;;5128628;27;20035;-57
2023/05/09 03:29:07;;;;;;;79.18;47.40;;;15.70;99.90;;;;;;5157762;27;20103;-57
2023/05/09 03:31:33;;;;;;;74.22;46.30;;;15.60;99.90;;;;;;5130582;27;20042;-59
2023/05/09 03:33:59;;;;;;;78.70;48.08;;;15.60;99.90;;;;;;5158824;27;20112;-56
2023/05/09 03:36:25;;;;;;;80.28;48.03;;;15.60;99.90;;;;;;5172080;27;20114;-57
2023/05/09 03:38:50;;;;;;;81.38;47.70;;;15.70;99.90;;;;;;5171139;27;20116;-60
2023/05/09 03:41:17;;;;;;;89.28;49.22;;;15.60;99.90;;;;;;5172289;27;20088;-59
2023/05/09 03:43:43;;;;;;;88.38;50.03;;;15.70;99.90;;;;;;5137533;27;20575;-60
2023/05/09 03:46:09;;;;;;;84.57;50.28;;;15.60;99.90;;;;;;5171819;27;20046;-58
2023/05/09 03:48:34;;;;;;;88.07;52.20;;;15.60;99.90;;;;;;5170851;27;20034;-60
2023/05/09 03:51:01;;;;;;;89.03;49.85;;;15.60;99.90;;;;;;5171988;27;20581;-59
2023/05/09 03:53:27;;;;;;;94.35;52.53;;;15.60;99.90;;;;;;5154431;27;20042;-60
2023/05/09 03:55:53;;;;;;;90.20;52.65;;;15.60;99.90;;;;;;5154602;27;20113;-60
2023/05/09 03:58:18;;;;;;;89.65;51.38;;;15.60;99.90;;;;;;5171271;27;20194;-58
2023/05/09 04:00:44;;;;;;;94.15;53.95;;;15.60;99.90;;;;;;5171546;27;20041;-60
2023/05/09 04:03:10;;;;;;;95.35;52.97;;;15.60;99.90;;;;;;5171736;27;20038;-58
2023/05/09 04:05:36;;;;;;;93.28;53.03;;;15.60;99.90;;;;;;5171274;27;20489;-60
2023/05/09 04:08:03;;;;;;;101.47;56.85;;;15.60;99.90;;;;;;5170559;27;20065;-59
2023/05/09 04:10:29;;;;;;;93.47;53.35;;;15.60;99.90;;;;;;5171873;27;20053;-60
2023/05/09 04:12:55;;;;;;;92.75;53.08;;;15.60;99.90;;;;;;5171189;27;20389;-58
2023/05/09 04:15:21;;;;;;;100.72;54.92;;;15.60;99.90;;;;;;5171269;27;20054;-62
2023/05/09 04:17:47;;;;;;;104.15;57.03;;;15.60;99.90;;;;;;5170663;27;20087;-57
2023/05/09 04:20:12;;;;;;;99.65;56.67;;;15.60;99.90;;;;;;5171694;27;20118;-58
2023/05/09 04:22:38;;;;;;;101.20;55.15;;;15.60;99.90;;;;;;5171639;27;20042;-59
2023/05/09 04:25:05;;;;;;;105.75;57.00;;;15.60;99.90;;;;;;5172359;27;20038;-60
2023/05/09 04:27:30;;;;;;;104.38;57.83;;;15.60;99.90;;;;;;5173113;27;20102;-60
2023/05/09 04:29:56;;;;;;;103.80;56.38;;;15.60;99.90;;;;;;5154149;27;20077;-58
2023/05/09 04:32:22;;;;;;;107.22;57.42;;;15.70;99.90;;;;;;5171179;27;20026;-57
2023/05/09 04:34:48;;;;;;;95.85;54.70;;;15.70;99.90;;;;;;5170857;27;20041;-61
2023/05/09 04:37:14;;;;;;;106.35;57.08;;;15.70;99.90;;;;;;5170322;27;20034;-58
2023/05/09 04:39:39;;;;;;;107.72;57.50;;;15.60;99.90;;;;;;5170944;27;20518;-58
2023/05/09 04:42:05;;;;;;;101.57;55.75;;;15.60;99.90;;;;;;5172985;27;20037;-59
2023/05/09 04:44:32;;;;;;;98.15;55.58;;;15.70;99.90;;;;;;5153744;27;20046;-61
2023/05/09 04:46:57;;;;;;;108.38;58.17;;;15.60;99.90;;;;;;5170464;27;20073;-59
2023/05/09 04:49:23;;;;;;;101.88;56.70;;;15.70;99.90;;;;;;5171801;27;20085;-58
2023/05/09 04:51:50;;;;;;;99.15;56.08;;;15.70;99.90;;;;;;5170100;27;20053;-60
2023/05/09 04:54:16;;;;;;;105.03;55.80;;;15.60;99.90;;;;;;5171135;27;20046;-60
2023/05/09 04:56:42;;;;;;;97.50;54.67;;;15.60;99.90;;;;;;5170575;27;20030;-61
2023/05/09 04:59:07;;;;;;;98.85;53.97;;;15.60;99.90;;;;;;5172117;27;20519;-59
2023/05/09 05:01:33;;;;;;;98.88;56.08;;;15.60;99.90;;;;;;5172393;27;20036;-54
2023/05/09 05:04:00;;;;;;;98.03;55.65;;;15.60;99.90;;;;;;5175021;27;20106;-58
2023/05/09 05:06:25;;;;;;;99.15;55.80;;;15.60;99.90;;;;;;5139047;27;20043;-59
2023/05/09 05:08:51;;;;;;;96.68;55.85;;;15.70;99.90;;;;;;5156374;27;20105;-59
2023/05/09 05:11:17;;;;;;;98.70;55.80;;;15.60;99.90;;;;;;5175567;27;20034;-58
2023/05/09 05:13:43;;;;;;;101.18;56.20;;;15.70;99.90;;;;;;5161417;27;20078;-58
2023/05/09 05:16:09;;;;;;;105.93;56.75;;;15.60;99.90;;;;;;5162083;27;20049;-58
2023/05/09 05:18:35;;;;;;;100.40;55.65;;;15.60;99.90;;;;;;5174781;27;20042;-57
2023/05/09 05:21:00;;;;;;;104.97;56.58;;;15.70;99.90;;;;;;5139926;27;20031;-60
2023/05/09 05:23:26;;;;;;;104.45;56.47;;;15.70;99.90;;;;;;5173836;27;20044;-56
2023/05/09 05:25:52;;;;;;;103.78;57.33;;;15.70;99.90;;;;;;5174502;27;21069;-58
2023/05/09 05:28:17;;;;;;;101.55;56.83;;;15.70;99.90;;;;;;5173279;27;20101;-59
2023/05/09 05:30:43;;;;;;;99.43;56.20;;;15.70;99.90;;;;;;5173676;27;20050;-58
2023/05/09 05:33:09;;;;;;;105.70;56.72;;;15.80;99.90;;;;;;5132643;27;20043;-59
2023/05/09 05:35:35;;;;;;;100.70;56.70;;;15.80;99.90;;;;;;5137970;27;20039;-59
2023/05/09 05:38:01;;;;;;;102.05;56.20;;;15.80;99.90;;;;;;5173768;27;20400;-57
2023/05/09 05:40:26;;;;;;;101.45;57.13;;;15.80;99.90;;;;;;5173165;27;20113;-58
2023/05/09 05:42:53;;;;;;;96.95;55.28;;;15.80;99.90;;;;;;5149038;27;20038;-60
2023/05/09 05:45:19;;;;;;;98.03;57.30;;;15.90;99.90;;;;;;5174217;27;20060;-60
2023/05/09 05:47:44;;;;;;;96.18;56.63;;;15.90;99.90;;;;;;5174272;27;20125;-60
2023/05/09 05:50:10;;;;;;;102.97;56.50;;;15.90;99.90;;;;;;5173908;27;20023;-60
2023/05/09 05:52:37;;;;;;;94.13;53.60;;;16.00;99.90;;;;;;5173966;27;20038;-58
2023/05/09 05:55:04;;;;;;;94.85;54.47;;;16.00;99.90;;;;;;5173409;27;20374;-59
2023/05/09 05:57:30;;;;;;;95.95;54.42;;;16.10;99.90;;;;;;5174172;27;20061;-59
2023/05/09 05:59:56;;;;;;;95.05;54.30;;;16.10;99.90;;;;;;5173896;27;20058;-60
2023/05/09 06:02:22;;;;;;;89.10;52.28;;;16.10;99.90;;;;;;5174938;27;20106;-57
2023/05/09 06:04:47;;;;;;;93.53;52.47;;;16.10;99.90;;;;;;5173150;27;20046;-57
2023/05/09 06:07:13;;;;;;;93.55;52.65;;;16.20;99.90;;;;;;5173593;27;20069;-58
2023/05/09 06:09:39;;;;;;;97.05;55.30;;;16.20;99.90;;;;;;5172722;27;20026;-57
2023/05/09 06:12:05;;;;;;;92.57;52.60;;;16.20;99.90;;;;;;5173570;27;20086;-58
2023/05/09 06:14:31;;;;;;;93.30;52.97;;;16.20;99.90;;;;;;5171640;27;20050;-59
2023/05/09 06:16:57;;;;;;;85.68;49.50;;;16.10;99.90;;;;;;5148223;27;20071;-57
2023/05/09 06:19:23;;;;;;;95.40;54.28;;;16.10;99.90;;;;;;5139300;27;20070;-56
2023/05/09 06:21:49;;;;;;;94.45;52.97;;;16.10;99.90;;;;;;5173851;27;20078;-60
2023/05/09 06:24:15;;;;;;;92.68;52.45;;;16.00;99.90;;;;;;5173130;27;20057;-56
2023/05/09 06:26:40;;;;;;;91.55;52.42;;;16.00;99.90;;;;;;5173392;27;20117;-61
2023/05/09 06:29:06;;;;;;;94.88;54.22;;;16.00;99.90;;;;;;5172196;27;20061;-58
2023/05/09 06:31:37;;;;;;;86.55;51.80;;;16.00;99.90;;;;;;5172955;27;20045;-58
2023/05/09 06:34:06;;;;;;;87.65;51.25;;;16.10;99.90;;;;;;5172846;27;20381;-58
2023/05/09 06:36:32;;;;;;;83.53;49.55;;;16.10;99.90;;;;;;5173880;27;20381;-60
2023/05/09 06:38:58;;;;;;;86.57;49.78;;;16.10;99.90;;;;;;5172400;27;20037;-57
2023/05/09 06:41:24;;;;;;;80.75;49.97;;;16.10;99.90;;;;;;5173229;27;20537;-60
2023/05/09 06:43:50;;;;;;;85.72;49.80;;;16.20;99.90;;;;;;5122774;27;20046;-56
2023/05/09 06:46:16;;;;;;;88.65;50.92;;;16.20;99.90;;;;;;5173744;27;20034;-60
2023/05/09 06:48:42;;;;;;;78.97;48.33;;;16.30;99.90;;;;;;5171425;27;20045;-59
2023/05/09 06:51:08;;;;;;;76.18;47.47;;;16.40;99.90;;;;;;5172952;27;20419;-60
2023/05/09 06:53:34;;;;;;;79.13;47.00;;;16.30;99.90;;;;;;5172106;27;20117;-60
2023/05/09 06:56:00;;;;;;;67.80;43.58;;;16.40;99.90;;;;;;5173471;27;20061;-60
2023/05/09 06:58:26;;;;;;;70.65;42.22;;;16.30;99.90;;;;;;5171469;27;20576;-60
2023/05/09 07:00:52;;;;;;;61.03;38.45;;;16.40;99.90;;;;;;5150970;27;20027;-61
2023/05/09 07:03:18;;;;;;;56.33;37.35;;;16.40;99.90;;;;;;5174464;27;20581;-60
2023/05/09 07:05:44;;;;;;;54.60;35.83;;;16.40;99.90;;;;;;5173033;27;20121;-60
2023/05/09 07:08:10;;;;;;;54.47;35.53;;;16.40;99.90;;;;;;5169406;27;20034;-58
2023/05/09 07:10:37;;;;;;;43.47;29.65;;;16.40;99.90;;;;;;5142956;27;20117;-58
2023/05/09 07:13:03;;;;;;;47.33;29.70;;;16.40;99.90;;;;;;5139213;27;20047;-60
2023/05/09 07:15:28;;;;;;;47.28;29.55;;;16.40;99.90;;;;;;5172469;27;20175;-57
2023/05/09 07:17:54;;;;;;;41.40;27.85;;;16.50;99.90;;;;;;5173897;27;20073;-58
2023/05/09 07:20:20;;;;;;;45.20;28.45;;;16.50;99.90;;;;;;5140118;27;20031;-60
2023/05/09 07:22:46;;;;;;;39.60;27.27;;;16.50;99.90;;;;;;5165347;27;20130;-58
2023/05/09 07:25:11;;;;;;;39.60;26.48;;;16.50;99.90;;;;;;5141231;27;20164;-58
2023/05/09 07:27:37;;;;;;;35.10;24.80;;;16.60;99.90;;;;;;5169019;27;20049;-57
2023/05/09 07:30:04;;;;;;;41.20;26.83;;;16.50;99.90;;;;;;5172423;27;20493;-58
2023/05/09 07:32:30;;;;;;;37.90;25.42;;;16.60;99.90;;;;;;5172086;27;20376;-57
2023/05/09 07:34:56;;;;;;;33.78;23.13;;;16.60;99.90;;;;;;5172916;27;20038;-57
2023/05/09 07:37:22;;;;;;;36.60;23.73;;;16.70;99.90;;;;;;5170675;27;20042;-60
2023/05/09 07:39:47;;;;;;;36.25;24.00;;;16.70;99.90;;;;;;5171873;27;20038;-63
2023/05/09 07:42:13;;;;;;;34.72;23.83;;;16.70;99.90;;;;;;5171098;27;20044;-58
2023/05/09 07:44:39;;;;;;;32.67;22.88;;;16.70;99.90;;;;;;5172102;27;20030;-59
2023/05/09 07:47:04;;;;;;;34.42;23.08;;;16.80;99.90;;;;;;5171311;27;20030;-58
2023/05/09 07:49:31;;;;;;;32.47;22.02;;;16.80;99.90;;;;;;5154543;27;20035;-60
2023/05/09 07:51:57;;;;;;;36.50;24.13;;;16.80;99.90;;;;;;5173257;27;20046;-61
2023/05/09 07:54:22;;;;;;;35.25;24.52;;;16.90;99.90;;;;;;5140542;27;20104;-60
2023/05/09 07:56:48;;;;;;;35.40;25.17;;;16.80;99.90;;;;;;5164236;27;20031;-58
2023/05/09 07:59:14;;;;;;;37.30;24.95;;;16.80;99.90;;;;;;5172522;27;20094;-60
2023/05/09 08:01:40;;;;;;;38.22;26.10;;;16.80;99.90;;;;;;5171497;27;20030;-59
2023/05/09 08:04:07;;;;;;;37.83;27.15;;;16.80;99.90;;;;;;5172037;27;20027;-61
2023/05/09 08:06:33;;;;;;;38.30;26.95;;;16.80;99.90;;;;;;5170597;27;20042;-61
2023/05/09 08:08:59;;;;;;;36.03;25.45;;;16.80;99.90;;;;;;5171798;27;20045;-59
2023/05/09 08:11:25;;;;;;;36.08;26.45;;;16.80;99.90;;;;;;5171011;27;20477;-58
2023/05/09 08:13:51;;;;;;;37.25;25.38;;;16.70;99.90;;;;;;5170453;27;20026;-58
2023/05/09 08:16:17;;;;;;;39.40;26.73;;;16.80;99.90;;;;;;5138946;27;20045;-57
2023/05/09 08:18:43;;;;;;;36.58;25.55;;;16.80;99.90;;;;;;5172071;27;20594;-58
2023/05/09 08:21:08;;;;;;;37.53;27.13;;;16.80;99.90;;;;;;5170769;27;20030;-58
2023/05/09 08:23:34;;;;;;;37.22;27.05;;;16.80;99.90;;;;;;5171621;27;20396;-60
2023/05/09 08:26:00;;;;;;;34.88;26.15;;;16.90;99.90;;;;;;5171375;27;20046;-58
2023/05/09 08:28:27;;;;;;;38.70;26.02;;;16.90;99.90;;;;;;5170734;27;20087;-61
2023/05/09 08:30:53;;;;;;;39.88;26.92;;;17.00;99.90;;;;;;5170478;27;20464;-60
2023/05/09 08:33:19;;;;;;;39.05;26.67;;;17.10;99.90;;;;;;5171552;27;20038;-57
2023/05/09 08:35:52;;;;;;;40.00;26.33;;;17.20;99.90;;;;;;5171451;27;20057;-58
2023/05/09 08:38:18;;;;;;;37.83;25.58;;;17.30;99.90;;;;;;5144846;27;20067;-60
2023/05/09 08:40:44;;;;;;;35.63;24.20;;;17.40;99.90;;;;;;5141239;27;20074;-58
2023/05/09 08:43:10;;;;;;;32.65;23.40;;;17.50;99.90;;;;;;5143514;27;20082;-60
2023/05/09 08:45:48;;;;;;;29.95;21.92;;;17.40;99.90;;;;;;5169247;27;20060;-60
2023/05/09 08:48:15;;;;;;;28.83;19.25;;;17.50;99.90;;;;;;5175208;27;20045;-60
2023/05/09 08:50:42;;;;;;;26.08;19.77;;;17.60;99.90;;;;;;5174570;27;20082;-56
2023/05/09 08:53:08;;;;;;;26.13;20.17;;;17.60;99.90;;;;;;5141138;27;20068;-58
2023/05/09 08:55:34;;;;;;;27.42;19.48;;;17.60;99.90;;;;;;5156877;27;20135;-56
2023/05/09 08:58:01;;;;;;;27.52;19.08;;;17.70;99.90;;;;;;5176791;27;20026;-58
2023/05/09 09:00:27;;;;;;;26.33;18.80;;;17.70;99.90;;;;;;5174593;27;20041;-59
2023/05/09 09:02:54;;;;;;;26.50;19.05;;;17.70;99.90;;;;;;5174747;27;20066;-60
2023/05/09 09:05:22;;;;;;;27.30;19.45;;;17.80;99.90;;;;;;5174723;27;20042;-59
2023/05/09 09:07:48;;;;;;;27.08;19.10;;;17.80;99.90;;;;;;5176040;27;20396;-57
2023/05/09 09:10:15;;;;;;;25.90;19.02;;;17.90;99.90;;;;;;5172830;27;20038;-59
2023/05/09 09:12:42;;;;;;;27.50;18.23;;;17.90;99.90;;;;;;5175047;27;20159;-56
2023/05/09 09:15:12;;;;;;;23.30;17.80;;;18.00;99.90;;;;;;5133772;27;20062;-58
2023/05/09 09:17:41;;;;;;;23.95;17.77;;;18.10;99.90;;;;;;5140485;27;20487;-57
2023/05/09 09:20:11;;;;;;;26.38;18.70;;;18.10;99.90;;;;;;5169281;27;20063;-61
2023/05/09 09:22:41;;;;;;;21.90;17.17;;;18.20;99.90;;;;;;5173431;27;20068;-57
2023/05/09 09:25:07;;;;;;;23.23;17.45;;;18.20;99.90;;;;;;5143060;27;20038;-58
2023/05/09 09:27:34;;;;;;;25.67;17.35;;;18.20;99.90;;;;;;5139155;27;20042;-60
2023/05/09 09:30:09;;;;;;;22.60;17.23;;;18.30;99.90;;;;;;5173950;27;20121;-61
2023/05/09 09:32:36;;;;;;;26.88;19.10;;;18.30;99.90;;;;;;5141141;27;20027;-58
2023/05/09 09:35:09;;;;;;;25.00;17.92;;;18.40;99.90;;;;;;5175016;27;20465;-58
2023/05/09 09:37:40;;;;;;;22.60;17.17;;;18.50;99.90;;;;;;5173011;27;20026;-56
2023/05/09 09:40:10;;;;;;;21.67;16.55;;;18.60;99.90;;;;;;5173738;27;20038;-55
2023/05/09 09:42:41;;;;;;;22.05;17.23;;;18.70;99.90;;;;;;5173448;27;20034;-60
2023/05/09 09:45:15;;;;;;;22.92;17.35;;;18.80;99.90;;;;;;5142250;27;20030;-59
2023/05/09 09:47:43;;;;;;;22.98;17.08;;;18.80;99.90;;;;;;5171266;27;20030;-61
2023/05/09 09:50:15;;;;;;;21.48;15.45;;;18.90;99.90;;;;;;5174347;27;20158;-61
2023/05/09 09:52:54;;;;;;;20.73;14.82;;;18.80;99.90;;;;;;5173849;27;20046;-59
2023/05/09 09:55:21;;;;;;;20.92;14.20;;;18.90;99.90;;;;;;5173796;27;20086;-60
2023/05/09 09:57:47;;;;;;;19.85;14.80;;;18.90;99.90;;;;;;5173850;27;20544;-59
2023/05/09 10:00:19;;;;;;;18.13;14.07;;;18.90;99.90;;;;;;5175729;27;20029;-58
2023/05/09 10:02:49;;;;;;;17.27;13.10;;;18.90;99.90;;;;;;5175590;27;20473;-60
2023/05/09 10:05:19;;;;;;;17.42;14.35;;;19.00;99.90;;;;;;5140695;27;20482;-57
2023/05/09 10:07:45;;;;;;;19.30;15.07;;;19.10;99.90;;;;;;5173838;27;20080;-59
2023/05/09 10:10:11;;;;;;;18.63;14.00;;;19.10;99.90;;;;;;5172017;27;20030;-59
2023/05/09 10:12:37;;;;;;;17.88;13.30;;;19.20;99.90;;;;;;5143444;27;20057;-60
2023/05/09 10:15:09;;;;;;;17.27;13.80;;;19.20;99.90;;;;;;5166299;27;20405;-58
2023/05/09 10:17:35;;;;;;;18.98;14.40;;;19.20;99.90;;;;;;5175215;27;20030;-59
2023/05/09 10:20:05;;;;;;;18.33;14.52;;;19.10;99.90;;;;;;5155624;27;20393;-57
2023/05/09 10:22:33;;;;;;;16.80;13.50;;;19.00;99.90;;;;;;5142096;27;20035;-62
2023/05/09 10:25:12;;;;;;;17.55;13.32;;;18.80;99.90;;;;;;5165794;27;20113;-57
2023/05/09 10:27:43;;;;;;;17.95;14.45;;;18.70;99.90;;;;;;5174219;27;20045;-57
2023/05/09 10:30:16;;;;;;;17.80;14.50;;;18.60;99.90;;;;;;5172306;27;20046;-56
2023/05/09 10:33:11;;;;;;;17.67;14.63;;;18.60;99.90;;;;;;5173202;27;20038;-58
2023/05/09 10:35:43;;;;;;;16.88;14.55;;;18.60;99.90;;;;;;5146781;27;20532;-58
2023/05/09 10:38:11;;;;;;;17.70;14.25;;;18.60;99.90;;;;;;5172619;27;20065;-57
2023/05/09 10:40:38;;;;;;;18.45;14.43;;;18.60;99.90;;;;;;5172506;27;20034;-58
2023/05/09 10:43:06;;;;;;;20.00;14.68;;;18.60;99.90;;;;;;5171538;27;20053;-58
2023/05/09 10:45:32;;;;;;;24.02;15.50;;;18.50;99.90;;;;;;5173046;27;20042;-58
2023/05/09 10:47:58;;;;;;;20.02;15.07;;;18.40;99.90;;;;;;5172137;27;20072;-60
2023/05/09 10:50:25;;;;;;;19.80;15.68;;;18.40;99.90;;;;;;5172742;27;20038;-59
2023/05/09 10:53:04;;;;;;;18.73;15.68;;;18.50;99.90;;;;;;5133362;27;20445;-58
2023/05/09 10:55:45;;;;;;;20.50;15.88;;;18.50;99.90;;;;;;5137819;27;20141;-57
2023/05/09 10:58:26;;;;;;;19.60;16.17;;;18.40;99.90;;;;;;5173526;27;20037;-59
2023/05/09 11:00:57;;;;;;;21.75;16.05;;;18.50;99.90;;;;;;5174608;27;20158;-59
2023/05/09 11:03:24;;;;;;;20.30;16.75;;;18.50;99.90;;;;;;5174401;27;20034;-62
2023/05/09 11:05:53;;;;;;;18.75;15.77;;;18.50;99.90;;;;;;5171451;27;20048;-58
2023/05/09 11:08:27;;;;;;;21.77;16.63;;;18.60;99.90;;;;;;5172590;27;20168;-62
2023/05/09 11:11:05;;;;;;;21.17;16.35;;;18.60;99.90;;;;;;5171734;27;20079;-57
2023/05/09 11:13:32;;;;;;;19.33;15.98;;;18.60;99.90;;;;;;5173179;27;20167;-60
2023/05/09 11:16:00;;;;;;;21.25;16.35;;;18.60;99.90;;;;;;5173922;27;20516;-59
2023/05/09 11:18:32;;;;;;;21.42;17.85;;;18.60;99.90;;;;;;5173001;27;20145;-58
2023/05/09 11:21:05;;;;;;;19.15;16.30;;;18.70;99.90;;;;;;5172142;27;20380;-62
2023/05/09 11:23:32;;;;;;;18.53;15.37;;;18.70;99.90;;;;;;5172732;27;20034;-59
2023/05/09 11:26:06;;;;;;;20.58;16.83;;;18.70;99.90;;;;;;5130856;27;20047;-58
2023/05/09 11:28:36;;;;;;;22.80;16.70;;;18.70;99.90;;;;;;5159689;27;20030;-57
2023/05/09 11:31:08;;;;;;;22.98;16.75;;;18.70;99.90;;;;;;5173859;27;20076;-59
2023/05/09 11:33:36;;;;;;;21.95;16.52;;;18.70;99.90;;;;;;5172232;27;20433;-59
2023/05/09 11:36:24;;;;;;;20.55;16.60;;;18.70;99.90;;;;;;5172913;27;20109;-60
2023/05/09 11:39:08;;;;;;;20.95;16.98;;;18.60;99.90;;;;;;5138525;27;20038;-59
2023/05/09 11:41:42;;;;;;;25.33;17.48;;;18.60;99.90;;;;;;5172443;27;20023;-58
2023/05/09 11:44:15;;;;;;;;;;;18.50;99.90;;;;;;5171581;27;20109;-58
2023/05/09 11:46:42;;;;;;;20.20;16.92;;;18.50;99.90;;;;;;5173640;27;20004;-61
2023/05/09 11:49:07;;;;;;;21.73;15.57;;;18.50;99.90;;;;;;5172204;27;20504;-62
2023/05/09 11:51:37;;;;;;;20.00;16.38;;;18.50;99.90;;;;;;5171787;27;20049;-57
2023/05/09 11:54:04;;;;;;;20.13;17.08;;;18.50;99.90;;;;;;5171319;27;20067;-58
2023/05/09 11:56:30;;;;;;;20.02;17.42;;;18.50;99.90;;;;;;5170952;27;20366;-58
2023/05/09 11:58:57;;;;;;;21.73;18.02;;;18.50;99.90;;;;;;5173452;27;20045;-59
2023/05/09 12:01:23;;;;;;;23.63;17.92;;;18.60;99.90;;;;;;5173496;27;20093;-58
2023/05/09 12:03:50;;;;;;;19.65;17.35;;;18.60;99.90;;;;;;5171764;27;20129;-59
2023/05/09 12:06:19;;;;;;;22.65;17.58;;;18.50;99.90;;;;;;5171132;27;20046;-59
2023/05/09 12:08:46;;;;;;;18.70;16.70;;;18.50;99.90;;;;;;5171331;27;20049;-59
2023/05/09 12:11:13;;;;;;;20.92;17.75;;;18.40;99.90;;;;;;5169211;27;20030;-57
2023/05/09 12:13:50;;;;;;;19.63;16.98;;;18.40;99.90;;;;;;5172765;27;20042;-59
2023/05/09 12:16:17;;;;;;;19.50;16.35;;;18.40;99.90;;;;;;5172805;27;20039;-58
2023/05/09 12:18:48;;;;;;;17.02;15.23;;;18.30;99.90;;;;;;5171863;27;20034;-59
2023/05/09 12:21:14;;;;;;;18.33;15.30;;;18.30;99.90;;;;;;5171715;27;20030;-56
2023/05/09 12:23:40;;;;;;;18.35;14.70;;;18.10;99.90;;;;;;5171066;27;20145;-60
2023/05/09 12:26:06;;;;;;;18.13;15.70;;;18.10;99.90;;;;;;5170417;27;20122;-58
2023/05/09 12:28:32;;;;;;;18.73;15.15;;;18.10;99.90;;;;;;5171897;27;20042;-62